Stevens, Pennsylvania
Current Conditions -  °F | °C
As of 11:53 AM on Friday 19 Dec 2014 (Local Time) from KLNS Reporting Station
Overcast Overcast  
Wind Chill: 30°   Ceiling: 3600
Heat Index: 38°   Visibility: 10mi
Dew Point: 22°   Wind: 13mph
Humidity: 53%   Direction: 330°NNW
Pressure: 30.08"   Gusts: 20mph
Location:  40.21°N, 76.15°W
Report Text: KLNS 191653Z 33011G17KT 10SM OVC036 03/M06 A3008 RMK AO2 SLP191 T00331056
Loading
Personal Weather Stations






























Interactive Weather Map New forecast layout! Learn more

10-Day Weather Forecast

Advertisements
Track Severe Weather on mobile